Time;durP1;ratioP1;P1;durP2;ratioP2;P2;SDS_P1;SDS_P2;PMS_P1;PMS_P2;Temp;Humidity;BMP_temperature;BMP_pressure;BME280_temperature;BME280_humidity;BME280_pressure;Samples;Min_cycle;Max_cycle;Signal;HPM_P1;HPM_P2
2021/07/13 00:02:41;;;;;;;6.15;5.15;;;;;;;;;;6138636;28;20051;-78
2021/07/13 00:05:43;;;;;;;7.65;4.90;;;;;;;;;;6149463;28;20498;-78
2021/07/13 00:08:45;;;;;;;7.13;5.38;;;;;;;;;;6133702;28;20424;-78
2021/07/13 00:11:48;;;;;;;5.57;4.80;;;;;;;;;;6117867;29;20518;-78
2021/07/13 00:14:50;;;;;;;5.13;4.60;;;;;;;;;;6135985;28;20058;-78
2021/07/13 00:17:54;;;;;;;5.35;4.75;;;;;;;;;;6131447;28;20621;-78
2021/07/13 00:20:56;;;;;;;7.32;4.75;;;;;;;;;;6119027;28;20047;-78
2021/07/13 00:23:58;;;;;;;6.57;5.30;;;;;;;;;;6121168;28;20111;-78
2021/07/13 00:26:59;;;;;;;7.43;5.18;;;;;;;;;;6121552;29;20132;-78
2021/07/13 00:30:03;;;;;;;7.43;5.20;;;;;;;;;;6137887;29;20055;-78
2021/07/13 00:33:04;;;;;;;7.82;4.55;;;;;;;;;;6123138;28;20107;-78
2021/07/13 00:36:06;;;;;;;5.45;4.85;;;;;;;;;;6123867;29;20528;-78
2021/07/13 00:39:08;;;;;;;5.25;4.75;;;;;;;;;;6123393;29;20119;-78
2021/07/13 00:42:14;;;;;;;6.10;4.75;;;;;;;;;;6122690;28;20130;-78
2021/07/13 00:45:16;;;;;;;6.85;5.00;;;;;;;;;;6122141;29;20234;-78
2021/07/13 00:48:21;;;;;;;5.70;5.10;;;;;;;;;;6122729;29;20572;-78
2021/07/13 00:51:23;;;;;;;5.15;4.65;;;;;;;;;;6097584;29;20465;-78
2021/07/13 00:54:26;;;;;;;5.88;5.30;;;;;;;;;;6104350;29;20734;-78
2021/07/13 00:57:27;;;;;;;8.05;5.35;;;;;;;;;;6112659;29;20136;-78
2021/07/13 01:00:29;;;;;;;7.65;5.25;;;;;;;;;;6123181;29;20079;-78
2021/07/13 01:03:31;;;;;;;6.50;5.70;;;;;;;;;;6114080;28;20087;-78
2021/07/13 01:06:41;;;;;;;5.82;5.18;;;;;;;;;;6122469;29;20059;-78
2021/07/13 01:09:53;;;;;;;6.07;5.35;;;;;;;;;;6123829;29;20063;-78
2021/07/13 01:13:26;;;;;;;6.10;5.28;;;;;;;;;;6105823;29;20126;-78
2021/07/13 01:16:41;;;;;;;6.65;5.78;;;;;;;;;;6098895;29;20048;-78
2021/07/13 01:20:19;;;;;;;7.35;5.78;;;;;;;;;;6104667;29;20130;-78
2021/07/13 01:23:32;;;;;;;6.25;5.40;;;;;;;;;;6120726;29;20130;-78
2021/07/13 01:26:42;;;;;;;6.00;5.30;;;;;;;;;;6131809;28;20137;-78
2021/07/13 01:29:46;;;;;;;7.82;5.00;;;;;;;;;;6126745;29;20098;-78
2021/07/13 01:33:06;;;;;;;7.22;5.78;;;;;;;;;;6119144;29;20047;-78
2021/07/13 01:36:15;;;;;;;8.13;5.63;;;;;;;;;;6119681;29;20088;-78
2021/07/13 01:39:18;;;;;;;7.90;5.47;;;;;;;;;;6139209;28;20129;-78
2021/07/13 01:42:21;;;;;;;6.97;5.53;;;;;;;;;;6125609;28;20047;-78
2021/07/13 01:45:22;;;;;;;;;;;;;;;;;;6141112;28;20051;-78
2021/07/13 01:48:27;;;;;;;8.45;6.03;;;;;;;;;;6122457;28;19979;-78
2021/07/13 01:51:31;;;;;;;7.68;6.10;;;;;;;;;;6121435;29;20587;-78
2021/07/13 01:54:34;;;;;;;6.32;5.53;;;;;;;;;;6123588;28;20130;-78
2021/07/13 01:57:36;;;;;;;;;;;;;;;;;;6144514;28;20137;-78
2021/07/13 02:00:41;;;;;;;7.05;6.03;;;;;;;;;;6144761;28;20340;-78
2021/07/13 02:03:44;;;;;;;8.35;6.03;;;;;;;;;;6095563;29;20067;-78
2021/07/13 02:06:46;;;;;;;8.85;6.00;;;;;;;;;;6096334;29;20119;-78
2021/07/13 02:09:48;;;;;;;9.03;6.97;;;;;;;;;;6088859;29;20100;-78
2021/07/13 02:12:50;;;;;;;6.95;6.10;;;;;;;;;;6111998;29;20534;-78
2021/07/13 02:15:51;;;;;;;7.20;6.30;;;;;;;;;;6133406;28;20076;-78
2021/07/13 02:18:53;;;;;;;6.72;5.85;;;;;;;;;;6097720;29;20111;-78
2021/07/13 02:21:56;;;;;;;7.53;5.90;;;;;;;;;;6115398;28;20111;-78
2021/07/13 02:24:58;;;;;;;;;;;;;;;;;;6119528;28;20164;-78
2021/07/13 02:28:30;;;;;;;6.78;5.70;;;;;;;;;;6119893;28;20278;-78
2021/07/13 02:31:40;;;;;;;7.30;5.68;;;;;;;;;;6096069;29;20119;-78
2021/07/13 02:34:45;;;;;;;8.18;6.18;;;;;;;;;;6121457;29;20763;-78
2021/07/13 02:37:47;;;;;;;9.18;6.43;;;;;;;;;;6121936;29;20126;-78
2021/07/13 02:40:50;;;;;;;7.15;6.38;;;;;;;;;;6135848;28;20043;-78
2021/07/13 02:43:54;;;;;;;9.38;6.40;;;;;;;;;;6119431;29;20707;-78
2021/07/13 02:46:57;;;;;;;7.60;5.85;;;;;;;;;;6120819;28;20533;-77
2021/07/13 02:50:00;;;;;;;7.80;5.88;;;;;;;;;;6118007;29;20043;-77
2021/07/13 02:53:04;;;;;;;6.68;5.97;;;;;;;;;;6116446;29;20633;-77
2021/07/13 02:56:07;;;;;;;7.40;6.53;;;;;;;;;;6130386;28;20051;-77
2021/07/13 02:59:10;;;;;;;7.50;6.18;;;;;;;;;;6116181;29;20514;-77
2021/07/13 03:02:14;;;;;;;8.02;7.05;;;;;;;;;;6116179;29;20127;-77
2021/07/13 03:05:21;;;;;;;9.00;6.78;;;;;;;;;;6115601;29;20070;-77
2021/07/13 03:08:25;;;;;;;8.35;6.47;;;;;;;;;;6114064;29;20102;-77
2021/07/13 03:11:27;;;;;;;8.32;7.10;;;;;;;;;;6109118;28;20621;-77
2021/07/13 03:14:31;;;;;;;10.38;7.55;;;;;;;;;;6141463;28;20134;-78
2021/07/13 03:17:33;;;;;;;7.93;7.03;;;;;;;;;;6126776;28;21036;-77
2021/07/13 03:20:35;;;;;;;8.13;7.22;;;;;;;;;;6117955;29;20092;-78
2021/07/13 03:23:39;;;;;;;9.70;7.32;;;;;;;;;;6117134;28;20187;-77
2021/07/13 03:26:44;;;;;;;8.40;6.95;;;;;;;;;;6115662;29;20450;-77
2021/07/13 03:29:48;;;;;;;9.63;7.72;;;;;;;;;;6116989;28;20122;-76
2021/07/13 03:32:53;;;;;;;8.57;7.50;;;;;;;;;;6128630;28;20080;-78
2021/07/13 03:35:56;;;;;;;8.80;7.20;;;;;;;;;;6132523;28;20121;-78
2021/07/13 03:38:58;;;;;;;10.63;8.13;;;;;;;;;;6125586;28;20695;-77
2021/07/13 03:42:01;;;;;;;10.75;7.90;;;;;;;;;;6116605;29;20043;-77
2021/07/13 03:45:04;;;;;;;9.82;8.38;;;;;;;;;;6112285;28;20063;-77
2021/07/13 03:48:09;;;;;;;;;;;;;;;;;;6104808;29;20059;-77
2021/07/13 03:51:21;;;;;;;10.52;7.53;;;;;;;;;;6130963;29;19930;-77
2021/07/13 03:54:22;;;;;;;10.15;7.72;;;;;;;;;;6137331;28;20039;-77
2021/07/13 03:57:24;;;;;;;8.85;7.53;;;;;;;;;;6126487;28;20131;-77
2021/07/13 04:00:27;;;;;;;11.60;8.32;;;;;;;;;;6112018;29;20052;-77
2021/07/13 04:03:29;;;;;;;9.80;7.43;;;;;;;;;;6117262;29;20088;-77
2021/07/13 04:06:33;;;;;;;11.75;8.15;;;;;;;;;;6121170;29;20059;-78
2021/07/13 04:09:35;;;;;;;9.45;7.60;;;;;;;;;;6121557;29;20957;-77
2021/07/13 04:12:36;;;;;;;9.07;7.80;;;;;;;;;;6139565;28;20047;-77
2021/07/13 04:15:38;;;;;;;9.35;7.38;;;;;;;;;;6144638;28;20047;-77
2021/07/13 04:18:41;;;;;;;9.33;7.77;;;;;;;;;;6142120;28;20110;-77
2021/07/13 04:21:42;;;;;;;9.47;7.40;;;;;;;;;;6159193;28;20083;-78
2021/07/13 04:24:44;;;;;;;8.40;6.90;;;;;;;;;;6144782;28;21164;-77
2021/07/13 04:27:45;;;;;;;9.85;7.43;;;;;;;;;;6109217;28;20043;-78
2021/07/13 04:30:48;;;;;;;9.90;7.40;;;;;;;;;;6097410;29;20044;-77
2021/07/13 04:33:49;;;;;;;8.68;7.47;;;;;;;;;;6119585;29;20051;-77
2021/07/13 04:36:51;;;;;;;9.80;7.18;;;;;;;;;;6121040;29;20050;-78
2021/07/13 04:39:53;;;;;;;9.35;7.28;;;;;;;;;;6119921;29;20524;-77
2021/07/13 04:42:54;;;;;;;8.85;7.70;;;;;;;;;;6130628;28;20067;-78
2021/07/13 04:45:56;;;;;;;9.75;8.13;;;;;;;;;;6152700;28;20525;-77
2021/07/13 04:48:58;;;;;;;10.20;7.60;;;;;;;;;;6119357;29;20054;-77
2021/07/13 04:52:01;;;;;;;10.13;7.80;;;;;;;;;;6118630;29;20194;-77
2021/07/13 04:55:03;;;;;;;;;;;;;;;;;;6117912;28;20051;-78
2021/07/13 04:58:06;;;;;;;8.98;7.38;;;;;;;;;;6119685;29;19930;-77
2021/07/13 05:01:07;;;;;;;9.57;7.80;;;;;;;;;;6134175;28;20134;-77
2021/07/13 05:04:09;;;;;;;9.55;7.80;;;;;;;;;;6117068;29;20191;-78
2021/07/13 05:07:11;;;;;;;10.35;8.02;;;;;;;;;;6091383;29;20493;-77
2021/07/13 05:10:14;;;;;;;11.27;8.15;;;;;;;;;;6091177;29;20052;-77
2021/07/13 05:13:16;;;;;;;12.65;8.48;;;;;;;;;;6092027;29;20123;-77
2021/07/13 05:16:18;;;;;;;11.03;8.07;;;;;;;;;;6091062;29;20051;-78
2021/07/13 05:19:19;;;;;;;11.95;8.35;;;;;;;;;;6106606;29;20054;-78
2021/07/13 05:22:21;;;;;;;11.73;8.63;;;;;;;;;;6097696;29;20700;-77
2021/07/13 05:25:23;;;;;;;10.50;7.90;;;;;;;;;;6130422;28;20091;-77
2021/07/13 05:28:25;;;;;;;12.98;8.10;;;;;;;;;;6118323;29;20087;-77
2021/07/13 05:31:27;;;;;;;9.85;8.10;;;;;;;;;;6118756;28;20060;-77
2021/07/13 05:34:28;;;;;;;9.90;8.35;;;;;;;;;;6118075;29;20048;-77
2021/07/13 05:37:30;;;;;;;9.70;8.35;;;;;;;;;;6093677;29;20073;-77
2021/07/13 05:40:32;;;;;;;9.93;8.07;;;;;;;;;;6092951;29;20192;-77
2021/07/13 05:43:33;;;;;;;9.40;8.10;;;;;;;;;;6092736;29;20525;-77
2021/07/13 05:46:35;;;;;;;9.23;7.85;;;;;;;;;;6094696;29;20595;-77
2021/07/13 05:49:40;;;;;;;10.65;8.13;;;;;;;;;;6094785;29;20085;-77
2021/07/13 05:52:42;;;;;;;14.05;8.52;;;;;;;;;;6094600;29;20051;-77
2021/07/13 05:55:44;;;;;;;10.18;7.82;;;;;;;;;;6093532;29;20048;-77
2021/07/13 05:58:45;;;;;;;9.25;7.38;;;;;;;;;;6107727;29;20052;-77
2021/07/13 06:01:47;;;;;;;8.68;7.28;;;;;;;;;;6093507;29;20212;-77
2021/07/13 06:04:50;;;;;;;9.88;7.97;;;;;;;;;;6093558;29;20040;-77
2021/07/13 06:07:52;;;;;;;8.90;7.05;;;;;;;;;;6093740;29;20068;-77
2021/07/13 06:10:54;;;;;;;11.85;6.88;;;;;;;;;;6095070;29;20763;-77
2021/07/13 06:13:56;;;;;;;8.35;6.75;;;;;;;;;;6116937;29;20663;-77
2021/07/13 06:16:57;;;;;;;7.82;6.60;;;;;;;;;;6117743;29;20048;-77
2021/07/13 06:20:00;;;;;;;8.40;7.03;;;;;;;;;;6130750;28;20134;-77
2021/07/13 06:23:02;;;;;;;7.93;6.72;;;;;;;;;;6117576;29;20071;-77
2021/07/13 06:26:04;;;;;;;7.15;6.32;;;;;;;;;;6116461;29;20050;-78
2021/07/13 06:29:05;;;;;;;8.30;6.60;;;;;;;;;;6116872;29;20791;-77
2021/07/13 06:32:07;;;;;;;8.18;6.95;;;;;;;;;;6117122;28;20519;-76
2021/07/13 06:35:09;;;;;;;8.02;7.20;;;;;;;;;;6116166;29;20118;-77
2021/07/13 06:38:11;;;;;;;9.15;6.72;;;;;;;;;;6117465;29;20063;-76
2021/07/13 06:41:13;;;;;;;11.93;7.40;;;;;;;;;;6115185;28;20126;-77
2021/07/13 06:44:15;;;;;;;11.07;7.38;;;;;;;;;;6130943;28;20114;-77
2021/07/13 06:47:16;;;;;;;8.35;6.95;;;;;;;;;;6133123;28;20051;-77
2021/07/13 06:50:18;;;;;;;7.95;7.03;;;;;;;;;;6116792;29;20050;-77
2021/07/13 06:53:20;;;;;;;9.98;7.18;;;;;;;;;;6112289;29;20135;-77
2021/07/13 06:56:21;;;;;;;7.00;6.28;;;;;;;;;;6113633;28;20039;-77
2021/07/13 06:59:23;;;;;;;7.95;6.20;;;;;;;;;;6113748;29;20142;-77
2021/07/13 07:02:28;;;;;;;6.57;5.82;;;;;;;;;;6127712;28;20052;-77
2021/07/13 07:05:30;;;;;;;8.07;6.47;;;;;;;;;;6113737;29;20077;-77
2021/07/13 07:08:32;;;;;;;9.60;6.75;;;;;;;;;;6111849;29;20146;-77
2021/07/13 07:11:44;;;;;;;7.68;6.70;;;;;;;;;;6126552;28;20043;-76
2021/07/13 07:14:45;;;;;;;8.50;6.78;;;;;;;;;;6139076;28;20497;-76
2021/07/13 07:17:52;;;;;;;7.95;6.28;;;;;;;;;;6137844;28;20039;-77
2021/07/13 07:20:54;;;;;;;7.55;6.75;;;;;;;;;;6115765;29;20497;-77
2021/07/13 07:23:55;;;;;;;9.20;6.93;;;;;;;;;;6115349;29;20043;-77
2021/07/13 07:26:57;;;;;;;9.82;6.85;;;;;;;;;;6115907;28;20050;-77
2021/07/13 07:29:59;;;;;;;8.35;6.70;;;;;;;;;;6116033;28;20192;-77
2021/07/13 07:33:01;;;;;;;9.45;6.78;;;;;;;;;;6107654;29;20039;-77
2021/07/13 07:36:03;;;;;;;8.63;6.65;;;;;;;;;;6129612;29;20044;-77
2021/07/13 07:39:05;;;;;;;8.70;7.05;;;;;;;;;;6115049;29;20067;-77
2021/07/13 07:42:07;;;;;;;10.38;7.18;;;;;;;;;;6117053;28;20063;-77
2021/07/13 07:45:10;;;;;;;9.40;7.60;;;;;;;;;;6132150;28;20050;-77
2021/07/13 07:48:11;;;;;;;8.60;7.60;;;;;;;;;;6103642;28;20050;-77
2021/07/13 07:51:13;;;;;;;8.30;7.28;;;;;;;;;;6109588;28;20129;-77
2021/07/13 07:54:19;;;;;;;10.77;8.45;;;;;;;;;;6111943;28;20170;-77
2021/07/13 07:57:20;;;;;;;12.77;7.75;;;;;;;;;;6110626;28;20369;-77
2021/07/13 08:00:24;;;;;;;8.00;6.65;;;;;;;;;;6095989;28;20195;-77
2021/07/13 08:03:25;;;;;;;10.75;7.38;;;;;;;;;;6111370;28;20561;-77
2021/07/13 08:06:27;;;;;;;8.85;7.43;;;;;;;;;;6113537;29;20063;-77
2021/07/13 08:09:29;;;;;;;9.63;6.40;;;;;;;;;;6112027;29;20122;-77
2021/07/13 08:12:31;;;;;;;7.95;7.15;;;;;;;;;;6113804;29;20138;-77
2021/07/13 08:15:32;;;;;;;9.33;6.73;;;;;;;;;;6111752;28;20557;-77
2021/07/13 08:18:34;;;;;;;7.55;6.53;;;;;;;;;;6125205;28;20094;-77
2021/07/13 08:21:36;;;;;;;7.47;6.18;;;;;;;;;;6113350;28;20416;-78
2021/07/13 08:24:38;;;;;;;9.30;7.15;;;;;;;;;;6128894;28;20556;-77
2021/07/13 08:27:40;;;;;;;6.40;5.80;;;;;;;;;;6092284;29;20739;-77
2021/07/13 08:30:42;;;;;;;7.97;6.47;;;;;;;;;;6090492;29;20052;-77
2021/07/13 08:33:44;;;;;;;7.00;6.30;;;;;;;;;;6089996;29;20048;-77
2021/07/13 08:36:45;;;;;;;7.80;6.22;;;;;;;;;;6092070;29;20131;-78
2021/07/13 08:39:49;;;;;;;6.95;5.47;;;;;;;;;;6090399;29;20414;-77
2021/07/13 08:42:50;;;;;;;6.28;5.68;;;;;;;;;;6116105;29;20531;-77
2021/07/13 08:45:53;;;;;;;7.35;6.10;;;;;;;;;;6103588;28;20071;-77
2021/07/13 08:48:55;;;;;;;6.65;5.97;;;;;;;;;;6119691;29;20047;-76
2021/07/13 08:51:57;;;;;;;7.95;6.03;;;;;;;;;;6119193;29;20040;-77
2021/07/13 08:55:00;;;;;;;6.07;5.47;;;;;;;;;;6117153;29;20118;-77
2021/07/13 08:58:02;;;;;;;6.85;5.65;;;;;;;;;;6135379;28;20074;-76
2021/07/13 09:01:03;;;;;;;7.63;5.75;;;;;;;;;;6134391;28;20066;-77
2021/07/13 09:04:06;;;;;;;7.43;5.95;;;;;;;;;;6139247;28;20134;-76
2021/07/13 09:07:09;;;;;;;7.57;6.25;;;;;;;;;;6139635;28;20047;-77
2021/07/13 09:10:11;;;;;;;;;;;;;;;;;;6137637;28;20060;-77
2021/07/13 09:13:13;;;;;;;7.90;5.43;;;;;;;;;;6140162;28;20407;-77
2021/07/13 09:16:16;;;;;;;7.20;6.22;;;;;;;;;;6133903;28;20570;-77
2021/07/13 09:19:18;;;;;;;7.43;6.32;;;;;;;;;;6117180;29;20043;-77
2021/07/13 09:22:22;;;;;;;6.20;5.53;;;;;;;;;;6138133;28;20249;-77
2021/07/13 09:25:35;;;;;;;9.50;5.68;;;;;;;;;;6135209;28;20462;-77
2021/07/13 09:28:41;;;;;;;8.18;5.72;;;;;;;;;;6135628;28;20047;-78
2021/07/13 09:31:43;;;;;;;8.77;6.47;;;;;;;;;;6133780;28;20043;-77
2021/07/13 09:34:51;;;;;;;6.70;5.90;;;;;;;;;;6118722;29;20470;-76
2021/07/13 09:37:53;;;;;;;7.20;5.75;;;;;;;;;;6117357;29;20127;-77
2021/07/13 09:41:04;;;;;;;6.68;5.65;;;;;;;;;;6133330;29;20055;-78
2021/07/13 09:44:10;;;;;;;6.55;5.75;;;;;;;;;;6115519;29;20091;-77
2021/07/13 09:47:27;;;;;;;9.27;6.22;;;;;;;;;;6120770;28;20119;-77
2021/07/13 09:50:50;;;;;;;7.07;6.05;;;;;;;;;;6116001;29;20447;-77
2021/07/13 09:53:52;;;;;;;7.07;5.90;;;;;;;;;;6099638;28;20130;-77
2021/07/13 09:56:53;;;;;;;6.57;5.65;;;;;;;;;;6117645;29;20067;-76
2021/07/13 09:59:57;;;;;;;7.50;5.63;;;;;;;;;;6144603;28;20054;-77
2021/07/13 10:03:00;;;;;;;6.65;5.93;;;;;;;;;;6137956;28;20075;-76
2021/07/13 10:06:02;;;;;;;6.75;6.03;;;;;;;;;;6140179;28;20047;-77
2021/07/13 10:09:11;;;;;;;8.30;6.28;;;;;;;;;;6155116;28;20067;-76
2021/07/13 10:12:16;;;;;;;8.07;6.35;;;;;;;;;;6129867;28;20496;-76
2021/07/13 10:15:17;;;;;;;8.80;6.10;;;;;;;;;;6140683;28;20067;-76
2021/07/13 10:18:22;;;;;;;8.90;6.45;;;;;;;;;;6099918;28;20036;-76
2021/07/13 10:21:25;;;;;;;11.25;6.13;;;;;;;;;;6093157;29;20129;-76
2021/07/13 10:24:27;;;;;;;10.60;6.40;;;;;;;;;;6093602;29;20052;-77
2021/07/13 10:27:33;;;;;;;9.90;5.67;;;;;;;;;;6093000;29;20048;-76
2021/07/13 10:30:37;;;;;;;8.43;5.65;;;;;;;;;;6111571;29;20861;-76
2021/07/13 10:33:39;;;;;;;7.63;5.70;;;;;;;;;;6116614;28;20044;-76
2021/07/13 10:36:43;;;;;;;6.68;5.10;;;;;;;;;;6116281;29;20583;-77
2021/07/13 10:39:45;;;;;;;7.47;5.57;;;;;;;;;;6115813;29;20438;-77
2021/07/13 10:43:04;;;;;;;19.05;8.35;;;;;;;;;;6123751;28;20043;-75
2021/07/13 10:46:11;;;;;;;10.30;5.60;;;;;;;;;;6136330;28;20059;-75
2021/07/13 10:49:17;;;;;;;10.90;6.22;;;;;;;;;;6134887;28;20155;-75
2021/07/13 10:52:49;;;;;;;7.60;5.40;;;;;;;;;;6121064;28;20043;-75
2021/07/13 10:56:02;;;;;;;5.95;4.93;;;;;;;;;;6135104;28;20059;-75
2021/07/13 10:59:20;;;;;;;5.32;4.40;;;;;;;;;;6138700;28;20043;-77
2021/07/13 11:02:22;;;;;;;6.93;4.95;;;;;;;;;;6127653;28;20091;-77
2021/07/13 11:05:42;;;;;;;5.13;4.63;;;;;;;;;;6114736;29;20091;-77
2021/07/13 11:08:44;;;;;;;4.95;4.30;;;;;;;;;;6116190;29;20118;-77
2021/07/13 11:11:47;;;;;;;6.00;4.43;;;;;;;;;;6124816;28;20059;-77
2021/07/13 11:14:52;;;;;;;;;;;;;;;;;;6138776;28;20501;-77
2021/07/13 11:17:56;;;;;;;7.00;4.45;;;;;;;;;;6122210;28;20005;-77
2021/07/13 11:21:35;;;;;;;7.15;4.50;;;;;;;;;;6115714;28;20039;-76
2021/07/13 11:24:37;;;;;;;6.28;4.03;;;;;;;;;;6114758;28;20054;-77
2021/07/13 11:27:39;;;;;;;5.32;4.20;;;;;;;;;;6130566;29;20463;-76
2021/07/13 11:30:40;;;;;;;6.18;4.35;;;;;;;;;;6113379;29;20494;-77
2021/07/13 11:33:42;;;;;;;6.57;3.80;;;;;;;;;;6115537;28;20063;-76
2021/07/13 11:36:47;;;;;;;5.78;3.92;;;;;;;;;;6129940;29;20126;-76
2021/07/13 11:39:49;;;;;;;4.40;4.03;;;;;;;;;;6113991;29;20043;-76
2021/07/13 11:42:59;;;;;;;5.72;4.28;;;;;;;;;;6115289;28;20099;-77
2021/07/13 11:46:17;;;;;;;6.35;4.32;;;;;;;;;;6115152;28;20398;-76
2021/07/13 11:49:21;;;;;;;5.20;4.47;;;;;;;;;;6114989;29;20051;-76
2021/07/13 11:52:24;;;;;;;6.30;4.50;;;;;;;;;;6115082;28;20144;-77
2021/07/13 11:55:26;;;;;;;6.85;4.85;;;;;;;;;;6115063;29;20554;-77
2021/07/13 11:58:29;;;;;;;7.00;5.20;;;;;;;;;;6114468;29;20494;-77
2021/07/13 12:01:32;;;;;;;8.02;5.35;;;;;;;;;;6115069;28;20146;-77
2021/07/13 12:04:39;;;;;;;7.03;4.80;;;;;;;;;;6128993;29;20126;-77
2021/07/13 12:07:47;;;;;;;8.52;4.78;;;;;;;;;;6114772;29;20067;-78
2021/07/13 12:10:51;;;;;;;6.72;4.60;;;;;;;;;;6118900;28;20055;-78
2021/07/13 12:13:55;;;;;;;8.60;5.05;;;;;;;;;;6138107;28;20043;-77
2021/07/13 12:16:59;;;;;;;5.68;5.07;;;;;;;;;;6145442;28;20075;-78
2021/07/13 12:20:02;;;;;;;4.93;4.50;;;;;;;;;;6118686;29;20052;-77
2021/07/13 12:23:04;;;;;;;5.65;4.70;;;;;;;;;;6118024;29;20175;-78
2021/07/13 12:26:27;;;;;;;6.35;4.78;;;;;;;;;;6119681;28;20047;-77
2021/07/13 12:29:31;;;;;;;8.07;4.82;;;;;;;;;;6121187;29;20048;-78
2021/07/13 12:32:33;;;;;;;5.65;5.05;;;;;;;;;;6119250;29;20231;-78
2021/07/13 12:35:37;;;;;;;5.00;4.18;;;;;;;;;;6120530;29;20059;-77
2021/07/13 12:38:39;;;;;;;4.78;4.22;;;;;;;;;;6120005;28;20048;-77
2021/07/13 12:41:41;;;;;;;5.20;4.17;;;;;;;;;;6135117;29;20093;-77
2021/07/13 12:44:51;;;;;;;5.18;4.57;;;;;;;;;;6121636;29;20439;-77
2021/07/13 12:47:54;;;;;;;4.72;4.32;;;;;;;;;;6124749;28;20055;-78
2021/07/13 12:50:57;;;;;;;5.35;4.13;;;;;;;;;;6119601;29;20114;-77
2021/07/13 12:54:05;;;;;;;;;;;;;;;;;;6122022;28;20854;-77
2021/07/13 12:57:29;;;;;;;5.32;4.50;;;;;;;;;;6117475;29;19977;-78
2021/07/13 13:00:31;;;;;;;4.97;4.35;;;;;;;;;;6120642;28;20060;-78
2021/07/13 13:03:35;;;;;;;4.90;3.90;;;;;;;;;;6135759;28;20051;-78
2021/07/13 13:06:38;;;;;;;5.13;3.78;;;;;;;;;;6119584;29;20043;-78
2021/07/13 13:09:40;;;;;;;4.13;3.72;;;;;;;;;;6119743;28;20341;-78
2021/07/13 13:12:51;;;;;;;4.53;3.53;;;;;;;;;;6159061;28;20127;-78
2021/07/13 13:15:54;;;;;;;4.25;3.85;;;;;;;;;;6166176;28;20504;-77
2021/07/13 13:18:56;;;;;;;4.85;3.92;;;;;;;;;;6096803;29;20040;-78
2021/07/13 13:21:58;;;;;;;4.15;3.85;;;;;;;;;;6108015;28;20135;-77
2021/07/13 13:24:59;;;;;;;4.30;4.00;;;;;;;;;;6116365;28;20070;-76
2021/07/13 13:28:01;;;;;;;4.65;4.10;;;;;;;;;;6129625;28;20051;-77
2021/07/13 13:31:03;;;;;;;4.60;4.20;;;;;;;;;;6115916;28;20067;-76
2021/07/13 13:34:05;;;;;;;5.05;3.85;;;;;;;;;;6129142;29;20451;-75
2021/07/13 13:37:09;;;;;;;4.70;4.13;;;;;;;;;;6113773;29;20521;-76
2021/07/13 13:40:11;;;;;;;5.22;4.38;;;;;;;;;;6116367;28;20071;-81
2021/07/13 13:43:13;;;;;;;4.35;3.95;;;;;;;;;;6117932;29;20067;-78
2021/07/13 13:46:15;;;;;;;4.80;4.40;;;;;;;;;;6123892;28;20043;-80
2021/07/13 13:49:16;;;;;;;4.40;4.00;;;;;;;;;;6122460;29;20044;-80
2021/07/13 13:52:18;;;;;;;4.10;3.80;;;;;;;;;;6123125;29;20522;-82
2021/07/13 13:55:20;;;;;;;4.00;3.70;;;;;;;;;;6123825;28;20463;-78
2021/07/13 13:58:21;;;;;;;3.97;3.67;;;;;;;;;;6122960;28;20047;-79
2021/07/13 14:01:23;;;;;;;5.28;4.10;;;;;;;;;;6101351;29;20111;-80
2021/07/13 14:04:25;;;;;;;4.43;4.03;;;;;;;;;;6115521;29;20123;-80
2021/07/13 14:07:26;;;;;;;5.17;3.67;;;;;;;;;;6100820;29;20713;-80
2021/07/13 14:10:28;;;;;;;4.20;3.90;;;;;;;;;;6102879;29;20472;-81
2021/07/13 14:13:30;;;;;;;5.23;4.33;;;;;;;;;;6116161;29;20051;-79
2021/07/13 14:16:32;;;;;;;4.80;4.40;;;;;;;;;;6091934;29;20055;-79
2021/07/13 14:19:34;;;;;;;4.27;3.90;;;;;;;;;;6117937;29;20086;-80
2021/07/13 14:22:36;;;;;;;;;;;;;;;;;;6134172;29;20471;-80
2021/07/13 14:25:38;;;;;;;4.85;4.35;;;;;;;;;;6124836;29;19934;-80
2021/07/13 14:28:40;;;;;;;5.03;4.53;;;;;;;;;;6125633;29;20048;-80
2021/07/13 14:31:42;;;;;;;4.60;4.20;;;;;;;;;;6125093;28;20117;-79
2021/07/13 14:34:57;;;;;;;5.53;5.03;;;;;;;;;;6124550;28;20048;-79
2021/07/13 14:38:12;;;;;;;6.20;4.70;;;;;;;;;;6133044;29;20051;-79
2021/07/13 14:41:14;;;;;;;5.47;4.97;;;;;;;;;;6120151;29;20042;-78
2021/07/13 14:44:16;;;;;;;5.45;5.05;;;;;;;;;;6120208;29;20083;-80
2021/07/13 14:47:17;;;;;;;5.73;5.20;;;;;;;;;;6119562;29;20044;-80
2021/07/13 14:50:19;;;;;;;5.70;5.20;;;;;;;;;;6121582;29;20443;-80
2021/07/13 14:53:24;;;;;;;6.45;5.05;;;;;;;;;;6147057;28;20077;-80
2021/07/13 14:56:26;;;;;;;5.53;5.03;;;;;;;;;;6145036;28;20130;-80
2021/07/13 14:59:27;;;;;;;5.40;4.90;;;;;;;;;;6120160;29;20040;-80
2021/07/13 15:02:29;;;;;;;6.20;5.70;;;;;;;;;;6095097;29;20043;-78
2021/07/13 15:05:31;;;;;;;7.73;5.17;;;;;;;;;;6117888;29;20058;-80
2021/07/13 15:08:34;;;;;;;5.15;4.65;;;;;;;;;;6114302;28;20535;-78
2021/07/13 15:11:35;;;;;;;5.30;4.80;;;;;;;;;;6114296;28;20043;-76
2021/07/13 15:14:37;;;;;;;4.95;4.50;;;;;;;;;;6114530;28;20458;-76
2021/07/13 15:17:39;;;;;;;5.07;4.63;;;;;;;;;;6123322;28;20136;-77
2021/07/13 15:20:41;;;;;;;5.10;4.70;;;;;;;;;;6113864;29;20131;-78
2021/07/13 15:23:42;;;;;;;5.47;4.97;;;;;;;;;;6121511;28;20123;-78
2021/07/13 15:26:45;;;;;;;5.10;4.60;;;;;;;;;;6141407;28;20070;-80
2021/07/13 15:29:48;;;;;;;5.95;5.43;;;;;;;;;;6119163;28;20452;-81
2021/07/13 15:32:49;;;;;;;5.40;4.90;;;;;;;;;;6108865;28;20135;-81
2021/07/13 15:35:51;;;;;;;5.70;5.20;;;;;;;;;;6102169;28;20083;-81
2021/07/13 15:38:53;;;;;;;5.75;5.25;;;;;;;;;;6121367;28;20467;-82
2021/07/13 15:41:56;;;;;;;6.37;5.77;;;;;;;;;;6104421;28;20510;-82
2021/07/13 15:44:58;;;;;;;6.47;5.70;;;;;;;;;;6105238;28;20079;-81
2021/07/13 15:47:59;;;;;;;7.27;6.57;;;;;;;;;;6104815;28;20036;-81
2021/07/13 15:51:01;;;;;;;7.45;6.32;;;;;;;;;;6098235;29;20111;-81
2021/07/13 15:54:03;;;;;;;7.18;6.53;;;;;;;;;;6097748;29;20135;-80
2021/07/13 15:57:05;;;;;;;8.25;7.05;;;;;;;;;;6137178;28;20121;-80
2021/07/13 16:00:07;;;;;;;7.30;6.43;;;;;;;;;;6117871;29;20738;-81
2021/07/13 16:03:09;;;;;;;;;;;;;;;;;;6117991;28;20048;-80
2021/07/13 16:06:11;;;;;;;9.88;7.00;;;;;;;;;;6131213;28;19954;-81
2021/07/13 16:09:13;;;;;;;7.25;6.10;;;;;;;;;;6117482;28;20068;-80
2021/07/13 16:12:14;;;;;;;7.65;6.78;;;;;;;;;;6140132;28;20138;-80
2021/07/13 16:15:18;;;;;;;8.05;6.60;;;;;;;;;;6154721;28;20133;-81
2021/07/13 16:18:19;;;;;;;7.85;6.97;;;;;;;;;;6104647;29;20091;-80
2021/07/13 16:21:22;;;;;;;6.97;6.30;;;;;;;;;;6116971;29;20044;-81
2021/07/13 16:24:24;;;;;;;;;;;;;;;;;;6116261;29;20051;-79
2021/07/13 16:27:32;;;;;;;8.18;7.18;;;;;;;;;;6116045;28;19927;-79
2021/07/13 16:30:34;;;;;;;9.88;7.65;;;;;;;;;;6113521;29;20126;-79
2021/07/13 16:33:36;;;;;;;8.33;7.53;;;;;;;;;;6115734;28;20444;-79
2021/07/13 16:36:38;;;;;;;8.60;7.70;;;;;;;;;;6115968;29;20065;-79
2021/07/13 16:39:39;;;;;;;8.50;7.50;;;;;;;;;;6115820;29;20451;-79
2021/07/13 16:42:42;;;;;;;7.88;7.10;;;;;;;;;;6113297;29;20118;-78
2021/07/13 16:45:43;;;;;;;7.88;6.80;;;;;;;;;;6114078;28;20115;-78
2021/07/13 16:48:45;;;;;;;7.32;6.63;;;;;;;;;;6143027;28;20113;-79
2021/07/13 16:51:47;;;;;;;7.95;7.05;;;;;;;;;;6143173;28;20271;-79
2021/07/13 16:54:49;;;;;;;8.98;7.95;;;;;;;;;;6121228;28;20134;-79
2021/07/13 16:57:51;;;;;;;8.38;7.05;;;;;;;;;;6111736;29;20129;-79
2021/07/13 17:00:52;;;;;;;7.72;7.03;;;;;;;;;;6116225;29;20513;-79
2021/07/13 17:03:54;;;;;;;7.97;7.20;;;;;;;;;;6112200;29;20054;-79
2021/07/13 17:06:56;;;;;;;11.32;7.78;;;;;;;;;;6099525;29;20126;-78
2021/07/13 17:09:57;;;;;;;7.78;7.07;;;;;;;;;;6105806;29;20183;-79
2021/07/13 17:13:01;;;;;;;8.10;7.30;;;;;;;;;;6120062;29;20193;-78
2021/07/13 17:16:04;;;;;;;7.85;7.05;;;;;;;;;;6119079;28;20402;-79
2021/07/13 17:19:06;;;;;;;7.32;6.60;;;;;;;;;;6101479;29;20044;-79
2021/07/13 17:22:11;;;;;;;7.28;6.30;;;;;;;;;;6096532;29;20051;-79
2021/07/13 17:25:13;;;;;;;7.53;6.45;;;;;;;;;;6091903;29;20043;-79
2021/07/13 17:28:17;;;;;;;7.13;6.45;;;;;;;;;;6121735;28;20039;-78
2021/07/13 17:31:20;;;;;;;8.00;6.20;;;;;;;;;;6110337;28;20056;-78
2021/07/13 17:34:22;;;;;;;6.78;6.18;;;;;;;;;;6119169;28;20420;-78
2021/07/13 17:37:23;;;;;;;6.57;5.95;;;;;;;;;;6120414;28;20497;-79
2021/07/13 17:40:25;;;;;;;9.50;6.90;;;;;;;;;;6120129;28;20065;-79
2021/07/13 17:43:27;;;;;;;7.10;6.40;;;;;;;;;;6120285;29;20080;-78
2021/07/13 17:46:33;;;;;;;6.97;6.38;;;;;;;;;;6115706;29;20048;-79
2021/07/13 17:49:35;;;;;;;6.32;5.57;;;;;;;;;;6096507;29;20419;-79
2021/07/13 17:52:37;;;;;;;7.17;6.07;;;;;;;;;;6098819;29;20649;-79
2021/07/13 17:55:39;;;;;;;6.80;5.90;;;;;;;;;;6098895;29;20056;-78
2021/07/13 17:58:45;;;;;;;6.53;5.40;;;;;;;;;;6097319;29;20131;-79
2021/07/13 18:01:46;;;;;;;6.35;5.75;;;;;;;;;;6097236;29;20056;-79
2021/07/13 18:04:48;;;;;;;6.38;5.75;;;;;;;;;;6112793;28;20051;-79
2021/07/13 18:07:50;;;;;;;6.25;5.75;;;;;;;;;;6123420;29;20187;-78
2021/07/13 18:10:52;;;;;;;6.78;5.95;;;;;;;;;;6150268;28;20668;-79
2021/07/13 18:13:54;;;;;;;6.43;5.75;;;;;;;;;;6167314;28;20449;-79
2021/07/13 18:16:55;;;;;;;5.97;5.37;;;;;;;;;;6136011;28;20051;-79
2021/07/13 18:19:58;;;;;;;5.70;5.20;;;;;;;;;;6129089;28;20047;-79
2021/07/13 18:23:00;;;;;;;6.05;5.47;;;;;;;;;;6124984;28;20070;-79
2021/07/13 18:26:02;;;;;;;5.82;5.25;;;;;;;;;;6134002;28;20048;-79